Davilla, Texas
Current Conditions -  °F | °C
As of 5:58 PM on Saturday 25 Oct 2014 (Local Time) from KGRK Reporting Station
Clear Clear  
Wind Chill: 29°   Ceiling: Unl
Heat Index: 29°   Visibility: 10mi
Dew Point: 14°   Wind: 8mph
Humidity: 41%   Direction: 170°S
Pressure: 30.08"   Gusts: NA
Location:  30.79°N, 97.28°W
Report Text: KGRK 252258Z AUTO 17007KT 10SM CLR 29/14 A3008 RMK AO2 SLP177 T02870141
Loading
Personal Weather Stations






























Interactive Weather Map
Tropical Storm Tracking
New forecast layout! Learn more

10-Day Weather Forecast

Advertisements
Track Severe Weather on mobile